sensor_id;sensor_type;location;lat;lon;timestamp;P1;durP1;ratioP1;P2;durP2;ratioP2
77423;SDS011;66494;47.172;14.678;2023-04-03T00:00:52;0.25;;;0.13;;
77423;SDS011;66494;47.172;14.678;2023-04-03T00:01:52;0.50;;;0.30;;
77423;SDS011;66494;47.172;14.678;2023-04-03T00:02:52;0.20;;;0.17;;
77423;SDS011;66494;47.172;14.678;2023-04-03T00:03:52;0.38;;;0.20;;
77423;SDS011;66494;47.172;14.678;2023-04-03T00:04:53;0.52;;;0.30;;
77423;SDS011;66494;47.172;14.678;2023-04-03T00:05:53;2.72;;;0.38;;
77423;SDS011;66494;47.172;14.678;2023-04-03T00:06:53;0.65;;;0.30;;
77423;SDS011;66494;47.172;14.678;2023-04-03T00:07:53;0.57;;;0.20;;
77423;SDS011;66494;47.172;14.678;2023-04-03T00:08:53;0.40;;;0.28;;
77423;SDS011;66494;47.172;14.678;2023-04-03T00:09:54;0.47;;;0.30;;
77423;SDS011;66494;47.172;14.678;2023-04-03T00:10:54;0.10;;;0.10;;
77423;SDS011;66494;47.172;14.678;2023-04-03T00:11:55;0.25;;;0.20;;
77423;SDS011;66494;47.172;14.678;2023-04-03T00:13:55;0.28;;;0.22;;
77423;SDS011;66494;47.172;14.678;2023-04-03T00:14:55;0.28;;;0.20;;
77423;SDS011;66494;47.172;14.678;2023-04-03T00:15:55;0.43;;;0.28;;
77423;SDS011;66494;47.172;14.678;2023-04-03T00:16:56;0.52;;;0.20;;
77423;SDS011;66494;47.172;14.678;2023-04-03T00:17:56;0.82;;;0.30;;
77423;SDS011;66494;47.172;14.678;2023-04-03T00:18:56;0.40;;;0.30;;
77423;SDS011;66494;47.172;14.678;2023-04-03T00:19:57;0.20;;;0.10;;
77423;SDS011;66494;47.172;14.678;2023-04-03T00:20:57;0.20;;;0.10;;
77423;SDS011;66494;47.172;14.678;2023-04-03T00:21:57;0.88;;;0.47;;
77423;SDS011;66494;47.172;14.678;2023-04-03T00:22:57;0.82;;;0.32;;
77423;SDS011;66494;47.172;14.678;2023-04-03T00:23:58;0.63;;;0.38;;
77423;SDS011;66494;47.172;14.678;2023-04-03T00:24:58;0.80;;;0.20;;
77423;SDS011;66494;47.172;14.678;2023-04-03T00:25:58;1.05;;;0.40;;
77423;SDS011;66494;47.172;14.678;2023-04-03T00:26:58;0.35;;;0.20;;
77423;SDS011;66494;47.172;14.678;2023-04-03T00:28:59;0.63;;;0.30;;
77423;SDS011;66494;47.172;14.678;2023-04-03T00:29:59;0.47;;;0.20;;
77423;SDS011;66494;47.172;14.678;2023-04-03T00:30:59;0.52;;;0.20;;
77423;SDS011;66494;47.172;14.678;2023-04-03T00:32:00;0.40;;;0.22;;
77423;SDS011;66494;47.172;14.678;2023-04-03T00:33:00;0.52;;;0.20;;
77423;SDS011;66494;47.172;14.678;2023-04-03T00:34:00;0.30;;;0.20;;
77423;SDS011;66494;47.172;14.678;2023-04-03T00:35:01;0.40;;;0.20;;
77423;SDS011;66494;47.172;14.678;2023-04-03T00:36:10;1.00;;;0.50;;
77423;SDS011;66494;47.172;14.678;2023-04-03T00:37:10;0.90;;;0.20;;
77423;SDS011;66494;47.172;14.678;2023-04-03T00:39:11;0.30;;;0.20;;
77423;SDS011;66494;47.172;14.678;2023-04-03T00:41:11;0.38;;;0.10;;
77423;SDS011;66494;47.172;14.678;2023-04-03T00:42:12;0.75;;;0.52;;
77423;SDS011;66494;47.172;14.678;2023-04-03T00:43:13;0.65;;;0.35;;
77423;SDS011;66494;47.172;14.678;2023-04-03T00:45:34;1.05;;;0.57;;
77423;SDS011;66494;47.172;14.678;2023-04-03T00:46:35;0.80;;;0.40;;
77423;SDS011;66494;47.172;14.678;2023-04-03T00:48:45;0.68;;;0.40;;
77423;SDS011;66494;47.172;14.678;2023-04-03T00:49:46;0.80;;;0.40;;
77423;SDS011;66494;47.172;14.678;2023-04-03T00:51:46;1.20;;;0.40;;
77423;SDS011;66494;47.172;14.678;2023-04-03T00:53:50;0.75;;;0.63;;
77423;SDS011;66494;47.172;14.678;2023-04-03T00:54:54;1.08;;;0.43;;
77423;SDS011;66494;47.172;14.678;2023-04-03T00:55:55;1.45;;;0.52;;
77423;SDS011;66494;47.172;14.678;2023-04-03T00:57:56;0.53;;;0.40;;
77423;SDS011;66494;47.172;14.678;2023-04-03T01:00:02;0.80;;;0.40;;
77423;SDS011;66494;47.172;14.678;2023-04-03T01:01:03;0.63;;;0.35;;
77423;SDS011;66494;47.172;14.678;2023-04-03T01:02:05;0.40;;;0.30;;
77423;SDS011;66494;47.172;14.678;2023-04-03T01:04:05;1.02;;;0.38;;
77423;SDS011;66494;47.172;14.678;2023-04-03T01:06:06;0.90;;;0.55;;
77423;SDS011;66494;47.172;14.678;2023-04-03T01:07:08;1.45;;;0.22;;
77423;SDS011;66494;47.172;14.678;2023-04-03T01:08:08;1.13;;;0.47;;
77423;SDS011;66494;47.172;14.678;2023-04-03T01:10:10;1.10;;;0.30;;
77423;SDS011;66494;47.172;14.678;2023-04-03T01:11:13;0.85;;;0.60;;
77423;SDS011;66494;47.172;14.678;2023-04-03T01:13:17;1.40;;;0.28;;
77423;SDS011;66494;47.172;14.678;2023-04-03T01:14:18;0.75;;;0.47;;
77423;SDS011;66494;47.172;14.678;2023-04-03T01:16:19;0.77;;;0.40;;
77423;SDS011;66494;47.172;14.678;2023-04-03T01:17:27;0.70;;;0.30;;
77423;SDS011;66494;47.172;14.678;2023-04-03T01:18:27;0.60;;;0.38;;
77423;SDS011;66494;47.172;14.678;2023-04-03T01:24:03;1.10;;;0.60;;
77423;SDS011;66494;47.172;14.678;2023-04-03T01:25:06;1.17;;;0.70;;
77423;SDS011;66494;47.172;14.678;2023-04-03T01:27:07;1.73;;;0.43;;
77423;SDS011;66494;47.172;14.678;2023-04-03T01:28:11;1.40;;;0.38;;
77423;SDS011;66494;47.172;14.678;2023-04-03T01:29:11;1.13;;;0.40;;
77423;SDS011;66494;47.172;14.678;2023-04-03T01:31:18;0.40;;;0.20;;
77423;SDS011;66494;47.172;14.678;2023-04-03T01:32:20;0.30;;;0.20;;
77423;SDS011;66494;47.172;14.678;2023-04-03T01:34:20;0.75;;;0.40;;
77423;SDS011;66494;47.172;14.678;2023-04-03T01:36:22;0.98;;;0.30;;
77423;SDS011;66494;47.172;14.678;2023-04-03T01:37:24;0.20;;;0.20;;
77423;SDS011;66494;47.172;14.678;2023-04-03T01:39:24;0.68;;;0.28;;
77423;SDS011;66494;47.172;14.678;2023-04-03T01:40:24;0.57;;;0.32;;
77423;SDS011;66494;47.172;14.678;2023-04-03T01:41:25;0.88;;;0.40;;
77423;SDS011;66494;47.172;14.678;2023-04-03T01:42:25;0.60;;;0.30;;
77423;SDS011;66494;47.172;14.678;2023-04-03T01:43:25;0.55;;;0.25;;
77423;SDS011;66494;47.172;14.678;2023-04-03T01:44:26;0.82;;;0.30;;
77423;SDS011;66494;47.172;14.678;2023-04-03T01:45:26;2.83;;;0.45;;
77423;SDS011;66494;47.172;14.678;2023-04-03T01:46:26;1.50;;;0.30;;
77423;SDS011;66494;47.172;14.678;2023-04-03T01:47:26;0.63;;;0.25;;
77423;SDS011;66494;47.172;14.678;2023-04-03T01:48:26;0.45;;;0.20;;
77423;SDS011;66494;47.172;14.678;2023-04-03T01:49:27;1.23;;;0.22;;
77423;SDS011;66494;47.172;14.678;2023-04-03T01:50:27;1.02;;;0.40;;
77423;SDS011;66494;47.172;14.678;2023-04-03T01:51:27;0.25;;;0.20;;
77423;SDS011;66494;47.172;14.678;2023-04-03T01:52:27;0.50;;;0.30;;
77423;SDS011;66494;47.172;14.678;2023-04-03T01:53:28;2.65;;;0.22;;
77423;SDS011;66494;47.172;14.678;2023-04-03T01:54:28;1.52;;;0.30;;
77423;SDS011;66494;47.172;14.678;2023-04-03T01:55:28;0.30;;;0.20;;
77423;SDS011;66494;47.172;14.678;2023-04-03T01:56:28;0.35;;;0.20;;
77423;SDS011;66494;47.172;14.678;2023-04-03T01:57:28;1.38;;;0.40;;
77423;SDS011;66494;47.172;14.678;2023-04-03T01:58:29;0.70;;;0.30;;
77423;SDS011;66494;47.172;14.678;2023-04-03T01:59:29;0.22;;;0.17;;
77423;SDS011;66494;47.172;14.678;2023-04-03T02:00:29;0.25;;;0.22;;
77423;SDS011;66494;47.172;14.678;2023-04-03T02:01:30;0.47;;;0.22;;
77423;SDS011;66494;47.172;14.678;2023-04-03T02:02:30;0.25;;;0.20;;
77423;SDS011;66494;47.172;14.678;2023-04-03T02:03:31;0.55;;;0.20;;
77423;SDS011;66494;47.172;14.678;2023-04-03T02:04:31;0.47;;;0.47;;
77423;SDS011;66494;47.172;14.678;2023-04-03T02:05:31;0.32;;;0.30;;
77423;SDS011;66494;47.172;14.678;2023-04-03T02:06:31;0.80;;;0.28;;
77423;SDS011;66494;47.172;14.678;2023-04-03T02:07:32;0.57;;;0.30;;
77423;SDS011;66494;47.172;14.678;2023-04-03T02:08:32;0.25;;;0.25;;
77423;SDS011;66494;47.172;14.678;2023-04-03T02:09:32;0.45;;;0.20;;
77423;SDS011;66494;47.172;14.678;2023-04-03T02:10:32;0.10;;;0.10;;
77423;SDS011;66494;47.172;14.678;2023-04-03T02:11:32;0.32;;;0.13;;
77423;SDS011;66494;47.172;14.678;2023-04-03T02:13:33;1.05;;;0.40;;
77423;SDS011;66494;47.172;14.678;2023-04-03T02:15:33;0.20;;;0.10;;
77423;SDS011;66494;47.172;14.678;2023-04-03T02:17:34;0.50;;;0.10;;
77423;SDS011;66494;47.172;14.678;2023-04-03T02:19:35;0.20;;;0.10;;
77423;SDS011;66494;47.172;14.678;2023-04-03T02:20:35;0.75;;;0.20;;
77423;SDS011;66494;47.172;14.678;2023-04-03T02:21:35;0.95;;;0.40;;
77423;SDS011;66494;47.172;14.678;2023-04-03T02:23:36;0.40;;;0.28;;
77423;SDS011;66494;47.172;14.678;2023-04-03T02:26:39;0.27;;;0.20;;
77423;SDS011;66494;47.172;14.678;2023-04-03T02:27:39;0.70;;;0.15;;
77423;SDS011;66494;47.172;14.678;2023-04-03T02:28:39;0.90;;;0.43;;
77423;SDS011;66494;47.172;14.678;2023-04-03T02:29:41;0.98;;;0.30;;
77423;SDS011;66494;47.172;14.678;2023-04-03T02:31:41;0.70;;;0.32;;
77423;SDS011;66494;47.172;14.678;2023-04-03T02:33:42;1.75;;;0.43;;
77423;SDS011;66494;47.172;14.678;2023-04-03T02:34:42;0.63;;;0.30;;
77423;SDS011;66494;47.172;14.678;2023-04-03T02:35:42;0.88;;;0.32;;
77423;SDS011;66494;47.172;14.678;2023-04-03T02:36:42;1.48;;;0.20;;
77423;SDS011;66494;47.172;14.678;2023-04-03T02:38:43;2.20;;;0.50;;
77423;SDS011;66494;47.172;14.678;2023-04-03T02:40:43;1.55;;;0.77;;
77423;SDS011;66494;47.172;14.678;2023-04-03T02:41:43;0.75;;;0.30;;
77423;SDS011;66494;47.172;14.678;2023-04-03T02:42:44;0.65;;;0.47;;
77423;SDS011;66494;47.172;14.678;2023-04-03T02:43:45;0.77;;;0.32;;
77423;SDS011;66494;47.172;14.678;2023-04-03T02:44:45;0.90;;;0.47;;
77423;SDS011;66494;47.172;14.678;2023-04-03T02:45:45;0.68;;;0.28;;
77423;SDS011;66494;47.172;14.678;2023-04-03T02:47:46;2.33;;;0.40;;
77423;SDS011;66494;47.172;14.678;2023-04-03T02:48:46;0.77;;;0.47;;
77423;SDS011;66494;47.172;14.678;2023-04-03T02:49:46;0.80;;;0.60;;
77423;SDS011;66494;47.172;14.678;2023-04-03T02:50:47;0.57;;;0.40;;
77423;SDS011;66494;47.172;14.678;2023-04-03T02:52:47;0.63;;;0.30;;
77423;SDS011;66494;47.172;14.678;2023-04-03T02:53:47;0.75;;;0.30;;
77423;SDS011;66494;47.172;14.678;2023-04-03T02:54:47;1.70;;;0.50;;
77423;SDS011;66494;47.172;14.678;2023-04-03T02:56:48;1.25;;;0.50;;
77423;SDS011;66494;47.172;14.678;2023-04-03T02:57:49;1.38;;;0.50;;
77423;SDS011;66494;47.172;14.678;2023-04-03T02:58:49;1.50;;;0.50;;
77423;SDS011;66494;47.172;14.678;2023-04-03T02:59:50;1.20;;;0.55;;
77423;SDS011;66494;47.172;14.678;2023-04-03T03:00:50;0.52;;;0.40;;
77423;SDS011;66494;47.172;14.678;2023-04-03T03:01:50;3.15;;;0.75;;
77423;SDS011;66494;47.172;14.678;2023-04-03T03:02:50;1.55;;;0.90;;
77423;SDS011;66494;47.172;14.678;2023-04-03T03:04:51;1.65;;;0.60;;
77423;SDS011;66494;47.172;14.678;2023-04-03T03:06:51;0.95;;;0.50;;
77423;SDS011;66494;47.172;14.678;2023-04-03T03:07:52;1.13;;;0.50;;
77423;SDS011;66494;47.172;14.678;2023-04-03T03:09:52;1.35;;;0.50;;
77423;SDS011;66494;47.172;14.678;2023-04-03T03:11:53;0.93;;;0.40;;
77423;SDS011;66494;47.172;14.678;2023-04-03T03:13:53;1.00;;;0.47;;
77423;SDS011;66494;47.172;14.678;2023-04-03T03:14:53;1.33;;;0.68;;
77423;SDS011;66494;47.172;14.678;2023-04-03T03:15:54;0.57;;;0.30;;
77423;SDS011;66494;47.172;14.678;2023-04-03T03:17:54;1.67;;;0.60;;
77423;SDS011;66494;47.172;14.678;2023-04-03T03:19:54;0.50;;;0.30;;
77423;SDS011;66494;47.172;14.678;2023-04-03T03:20:56;4.22;;;0.57;;
77423;SDS011;66494;47.172;14.678;2023-04-03T03:22:56;1.00;;;0.50;;
77423;SDS011;66494;47.172;14.678;2023-04-03T03:23:57;1.77;;;0.75;;
77423;SDS011;66494;47.172;14.678;2023-04-03T03:25:58;0.90;;;0.55;;
77423;SDS011;66494;47.172;14.678;2023-04-03T03:26:58;0.75;;;0.47;;
77423;SDS011;66494;47.172;14.678;2023-04-03T03:27:59;0.47;;;0.32;;
77423;SDS011;66494;47.172;14.678;2023-04-03T03:28:59;1.15;;;0.52;;
77423;SDS011;66494;47.172;14.678;2023-04-03T03:31:00;1.17;;;0.32;;
77423;SDS011;66494;47.172;14.678;2023-04-03T03:32:00;0.65;;;0.30;;
77423;SDS011;66494;47.172;14.678;2023-04-03T03:34:00;0.85;;;0.30;;
77423;SDS011;66494;47.172;14.678;2023-04-03T03:36:01;0.95;;;0.47;;
77423;SDS011;66494;47.172;14.678;2023-04-03T03:38:01;0.93;;;0.50;;
77423;SDS011;66494;47.172;14.678;2023-04-03T03:40:02;4.03;;;0.60;;
77423;SDS011;66494;47.172;14.678;2023-04-03T03:41:02;1.38;;;0.70;;
77423;SDS011;66494;47.172;14.678;2023-04-03T03:42:02;2.20;;;0.73;;
77423;SDS011;66494;47.172;14.678;2023-04-03T03:44:03;0.73;;;0.50;;
77423;SDS011;66494;47.172;14.678;2023-04-03T03:46:04;1.27;;;0.57;;
77423;SDS011;66494;47.172;14.678;2023-04-03T03:47:04;0.93;;;0.32;;
77423;SDS011;66494;47.172;14.678;2023-04-03T03:48:06;0.88;;;0.50;;
77423;SDS011;66494;47.172;14.678;2023-04-03T03:49:06;1.33;;;0.73;;
77423;SDS011;66494;47.172;14.678;2023-04-03T03:50:06;1.50;;;0.82;;
77423;SDS011;66494;47.172;14.678;2023-04-03T03:52:07;2.17;;;1.60;;
77423;SDS011;66494;47.172;14.678;2023-04-03T03:53:10;1.80;;;0.68;;
77423;SDS011;66494;47.172;14.678;2023-04-03T03:54:10;1.27;;;0.65;;
77423;SDS011;66494;47.172;14.678;2023-04-03T03:56:11;1.80;;;0.68;;
77423;SDS011;66494;47.172;14.678;2023-04-03T03:57:11;2.78;;;1.85;;
77423;SDS011;66494;47.172;14.678;2023-04-03T03:58:11;1.63;;;0.95;;
77423;SDS011;66494;47.172;14.678;2023-04-03T03:59:12;1.73;;;0.63;;
77423;SDS011;66494;47.172;14.678;2023-04-03T04:01:12;4.53;;;0.73;;
77423;SDS011;66494;47.172;14.678;2023-04-03T04:03:13;0.77;;;0.30;;
77423;SDS011;66494;47.172;14.678;2023-04-03T04:05:13;2.15;;;0.88;;
77423;SDS011;66494;47.172;14.678;2023-04-03T04:06:13;2.15;;;0.60;;
77423;SDS011;66494;47.172;14.678;2023-04-03T04:08:14;1.85;;;0.80;;
77423;SDS011;66494;47.172;14.678;2023-04-03T04:10:15;2.25;;;0.60;;
77423;SDS011;66494;47.172;14.678;2023-04-03T04:11:15;1.85;;;1.08;;
77423;SDS011;66494;47.172;14.678;2023-04-03T04:13:15;1.90;;;0.82;;
77423;SDS011;66494;47.172;14.678;2023-04-03T04:14:16;1.40;;;0.77;;
77423;SDS011;66494;47.172;14.678;2023-04-03T04:15:16;1.42;;;0.65;;
77423;SDS011;66494;47.172;14.678;2023-04-03T04:16:16;3.40;;;1.02;;
77423;SDS011;66494;47.172;14.678;2023-04-03T04:17:16;1.95;;;1.10;;
77423;SDS011;66494;47.172;14.678;2023-04-03T04:18:17;1.10;;;0.60;;
77423;SDS011;66494;47.172;14.678;2023-04-03T04:20:18;1.35;;;0.63;;
77423;SDS011;66494;47.172;14.678;2023-04-03T04:22:18;1.10;;;0.50;;
77423;SDS011;66494;47.172;14.678;2023-04-03T04:24:18;1.23;;;0.82;;
77423;SDS011;66494;47.172;14.678;2023-04-03T04:26:19;1.40;;;0.80;;
77423;SDS011;66494;47.172;14.678;2023-04-03T04:27:20;3.22;;;1.13;;
77423;SDS011;66494;47.172;14.678;2023-04-03T04:28:20;1.42;;;0.90;;
77423;SDS011;66494;47.172;14.678;2023-04-03T04:29:20;1.67;;;0.73;;
77423;SDS011;66494;47.172;14.678;2023-04-03T04:31:20;2.40;;;1.00;;
77423;SDS011;66494;47.172;14.678;2023-04-03T04:33:21;3.45;;;1.08;;
77423;SDS011;66494;47.172;14.678;2023-04-03T04:35:21;37.90;;;20.90;;
77423;SDS011;66494;47.172;14.678;2023-04-03T04:37:21;57.58;;;31.10;;
77423;SDS011;66494;47.172;14.678;2023-04-03T04:39:22;124.88;;;66.88;;
77423;SDS011;66494;47.172;14.678;2023-04-03T04:41:22;42.05;;;24.33;;
77423;SDS011;66494;47.172;14.678;2023-04-03T04:43:23;14.15;;;8.20;;
77423;SDS011;66494;47.172;14.678;2023-04-03T04:45:23;55.70;;;25.08;;
77423;SDS011;66494;47.172;14.678;2023-04-03T04:47:23;91.47;;;40.40;;
77423;SDS011;66494;47.172;14.678;2023-04-03T04:48:23;10.05;;;5.28;;
77423;SDS011;66494;47.172;14.678;2023-04-03T04:50:24;4.35;;;2.47;;
77423;SDS011;66494;47.172;14.678;2023-04-03T04:52:25;9.20;;;2.35;;
77423;SDS011;66494;47.172;14.678;2023-04-03T04:54:25;5.07;;;1.80;;
77423;SDS011;66494;47.172;14.678;2023-04-03T04:56:25;3.70;;;1.38;;
77423;SDS011;66494;47.172;14.678;2023-04-03T04:57:26;2.83;;;1.40;;
77423;SDS011;66494;47.172;14.678;2023-04-03T04:58:26;2.13;;;1.17;;
77423;SDS011;66494;47.172;14.678;2023-04-03T04:59:26;2.50;;;0.82;;
77423;SDS011;66494;47.172;14.678;2023-04-03T05:00:26;2.15;;;1.17;;
77423;SDS011;66494;47.172;14.678;2023-04-03T05:01:27;1.60;;;1.23;;
77423;SDS011;66494;47.172;14.678;2023-04-03T05:03:27;2.45;;;1.20;;
77423;SDS011;66494;47.172;14.678;2023-04-03T05:05:28;2.53;;;1.27;;
77423;SDS011;66494;47.172;14.678;2023-04-03T05:06:28;2.72;;;1.05;;
77423;SDS011;66494;47.172;14.678;2023-04-03T05:07:30;1.50;;;1.15;;
77423;SDS011;66494;47.172;14.678;2023-04-03T05:08:30;3.08;;;1.23;;
77423;SDS011;66494;47.172;14.678;2023-04-03T05:09:31;3.30;;;1.38;;
77423;SDS011;66494;47.172;14.678;2023-04-03T05:10:31;8.38;;;2.08;;
77423;SDS011;66494;47.172;14.678;2023-04-03T05:11:31;6.90;;;3.78;;
77423;SDS011;66494;47.172;14.678;2023-04-03T05:13:32;7.55;;;2.75;;
77423;SDS011;66494;47.172;14.678;2023-04-03T05:15:32;3.60;;;1.20;;
77423;SDS011;66494;47.172;14.678;2023-04-03T05:17:32;1.35;;;0.85;;
77423;SDS011;66494;47.172;14.678;2023-04-03T05:19:33;1.48;;;0.90;;
77423;SDS011;66494;47.172;14.678;2023-04-03T05:20:33;1.70;;;0.93;;
77423;SDS011;66494;47.172;14.678;2023-04-03T05:21:34;3.40;;;1.13;;
77423;SDS011;66494;47.172;14.678;2023-04-03T05:22:34;1.67;;;1.00;;
77423;SDS011;66494;47.172;14.678;2023-04-03T05:23:34;2.63;;;1.23;;
77423;SDS011;66494;47.172;14.678;2023-04-03T05:24:34;2.22;;;1.35;;
77423;SDS011;66494;47.172;14.678;2023-04-03T05:25:36;5.93;;;2.15;;
77423;SDS011;66494;47.172;14.678;2023-04-03T05:26:37;4.53;;;2.92;;
77423;SDS011;66494;47.172;14.678;2023-04-03T05:27:37;5.70;;;2.30;;
77423;SDS011;66494;47.172;14.678;2023-04-03T05:28:37;7.38;;;2.30;;
77423;SDS011;66494;47.172;14.678;2023-04-03T05:29:37;5.53;;;2.40;;
77423;SDS011;66494;47.172;14.678;2023-04-03T05:30:38;4.90;;;2.00;;
77423;SDS011;66494;47.172;14.678;2023-04-03T05:32:38;2.22;;;1.42;;
77423;SDS011;66494;47.172;14.678;2023-04-03T05:34:38;18.52;;;9.75;;
77423;SDS011;66494;47.172;14.678;2023-04-03T05:35:39;119.40;;;65.05;;
77423;SDS011;66494;47.172;14.678;2023-04-03T05:36:41;145.55;;;80.28;;
77423;SDS011;66494;47.172;14.678;2023-04-03T05:38:41;30.33;;;16.38;;
77423;SDS011;66494;47.172;14.678;2023-04-03T05:40:42;6.25;;;2.78;;
77423;SDS011;66494;47.172;14.678;2023-04-03T05:41:42;5.32;;;1.75;;
77423;SDS011;66494;47.172;14.678;2023-04-03T05:42:42;3.58;;;1.73;;
77423;SDS011;66494;47.172;14.678;2023-04-03T05:44:42;4.13;;;1.00;;
77423;SDS011;66494;47.172;14.678;2023-04-03T05:46:43;2.05;;;1.15;;
77423;SDS011;66494;47.172;14.678;2023-04-03T05:47:43;2.08;;;0.65;;
77423;SDS011;66494;47.172;14.678;2023-04-03T05:48:44;3.20;;;1.20;;
77423;SDS011;66494;47.172;14.678;2023-04-03T05:50:45;3.10;;;1.30;;
77423;SDS011;66494;47.172;14.678;2023-04-03T05:51:46;1.60;;;0.85;;
77423;SDS011;66494;47.172;14.678;2023-04-03T05:52:46;4.07;;;2.28;;
77423;SDS011;66494;47.172;14.678;2023-04-03T05:53:48;2.63;;;1.10;;
77423;SDS011;66494;47.172;14.678;2023-04-03T05:54:49;3.42;;;0.95;;
77423;SDS011;66494;47.172;14.678;2023-04-03T05:55:50;2.85;;;1.25;;
77423;SDS011;66494;47.172;14.678;2023-04-03T05:56:50;4.57;;;1.42;;
77423;SDS011;66494;47.172;14.678;2023-04-03T05:58:50;1.98;;;1.05;;
77423;SDS011;66494;47.172;14.678;2023-04-03T05:59:51;5.57;;;1.20;;
77423;SDS011;66494;47.172;14.678;2023-04-03T06:00:51;4.20;;;1.42;;
77423;SDS011;66494;47.172;14.678;2023-04-03T06:01:51;2.20;;;1.15;;
77423;SDS011;66494;47.172;14.678;2023-04-03T06:02:52;3.65;;;1.23;;
77423;SDS011;66494;47.172;14.678;2023-04-03T06:04:52;1.90;;;0.85;;
77423;SDS011;66494;47.172;14.678;2023-04-03T06:06:53;1.75;;;0.88;;
77423;SDS011;66494;47.172;14.678;2023-04-03T06:07:54;1.40;;;0.85;;
77423;SDS011;66494;47.172;14.678;2023-04-03T06:09:55;1.95;;;1.15;;
77423;SDS011;66494;47.172;14.678;2023-04-03T06:11:56;1.50;;;0.75;;
77423;SDS011;66494;47.172;14.678;2023-04-03T06:12:58;1.98;;;1.00;;
77423;SDS011;66494;47.172;14.678;2023-04-03T06:13:58;2.80;;;1.58;;
77423;SDS011;66494;47.172;14.678;2023-04-03T06:15:59;1.88;;;0.88;;
77423;SDS011;66494;47.172;14.678;2023-04-03T06:17:59;6.93;;;1.02;;
77423;SDS011;66494;47.172;14.678;2023-04-03T06:19:00;1.70;;;0.95;;
77423;SDS011;66494;47.172;14.678;2023-04-03T06:21:00;1.35;;;0.80;;
77423;SDS011;66494;47.172;14.678;2023-04-03T06:22:02;2.45;;;1.20;;
77423;SDS011;66494;47.172;14.678;2023-04-03T06:24:03;2.35;;;1.30;;
77423;SDS011;66494;47.172;14.678;2023-04-03T06:25:03;9.38;;;1.92;;
77423;SDS011;66494;47.172;14.678;2023-04-03T06:26:04;3.47;;;1.40;;
77423;SDS011;66494;47.172;14.678;2023-04-03T06:28:05;2.85;;;1.23;;
77423;SDS011;66494;47.172;14.678;2023-04-03T06:29:07;4.47;;;1.17;;
77423;SDS011;66494;47.172;14.678;2023-04-03T06:31:08;2.10;;;0.80;;
77423;SDS011;66494;47.172;14.678;2023-04-03T06:33:08;3.55;;;1.08;;
77423;SDS011;66494;47.172;14.678;2023-04-03T06:34:09;1.42;;;0.88;;
77423;SDS011;66494;47.172;14.678;2023-04-03T06:35:10;2.65;;;1.30;;
77423;SDS011;66494;47.172;14.678;2023-04-03T06:37:17;1.15;;;0.60;;
77423;SDS011;66494;47.172;14.678;2023-04-03T06:38:18;1.90;;;0.85;;
77423;SDS011;66494;47.172;14.678;2023-04-03T06:40:22;4.50;;;1.50;;
77423;SDS011;66494;47.172;14.678;2023-04-03T06:41:22;3.88;;;1.17;;
77423;SDS011;66494;47.172;14.678;2023-04-03T06:43:23;1.88;;;0.88;;
77423;SDS011;66494;47.172;14.678;2023-04-03T06:45:24;1.53;;;1.13;;
77423;SDS011;66494;47.172;14.678;2023-04-03T06:46:26;1.17;;;0.70;;
77423;SDS011;66494;47.172;14.678;2023-04-03T06:47:26;3.08;;;1.77;;
77423;SDS011;66494;47.172;14.678;2023-04-03T06:49:27;1.00;;;0.60;;
77423;SDS011;66494;47.172;14.678;2023-04-03T06:50:27;1.45;;;0.98;;
77423;SDS011;66494;47.172;14.678;2023-04-03T06:51:28;3.15;;;0.98;;
77423;SDS011;66494;47.172;14.678;2023-04-03T06:52:29;1.88;;;0.82;;
77423;SDS011;66494;47.172;14.678;2023-04-03T06:54:30;2.25;;;0.90;;
77423;SDS011;66494;47.172;14.678;2023-04-03T06:55:30;3.10;;;1.00;;
77423;SDS011;66494;47.172;14.678;2023-04-03T06:56:30;2.20;;;1.10;;
77423;SDS011;66494;47.172;14.678;2023-04-03T06:58:31;2.65;;;1.02;;
77423;SDS011;66494;47.172;14.678;2023-04-03T06:59:31;2.05;;;0.88;;
77423;SDS011;66494;47.172;14.678;2023-04-03T07:00:31;1.58;;;1.00;;
77423;SDS011;66494;47.172;14.678;2023-04-03T07:01:31;1.80;;;0.70;;
77423;SDS011;66494;47.172;14.678;2023-04-03T07:02:32;3.28;;;0.90;;
77423;SDS011;66494;47.172;14.678;2023-04-03T07:03:32;1.70;;;1.08;;
77423;SDS011;66494;47.172;14.678;2023-04-03T07:04:32;3.67;;;1.75;;
77423;SDS011;66494;47.172;14.678;2023-04-03T07:05:32;5.95;;;2.78;;
77423;SDS011;66494;47.172;14.678;2023-04-03T07:06:33;6.97;;;1.90;;
77423;SDS011;66494;47.172;14.678;2023-04-03T07:07:33;7.93;;;1.48;;
77423;SDS011;66494;47.172;14.678;2023-04-03T07:08:34;5.45;;;1.33;;
77423;SDS011;66494;47.172;14.678;2023-04-03T07:09:35;2.25;;;0.80;;
77423;SDS011;66494;47.172;14.678;2023-04-03T07:10:35;1.60;;;1.00;;
77423;SDS011;66494;47.172;14.678;2023-04-03T07:11:37;9.52;;;1.00;;
77423;SDS011;66494;47.172;14.678;2023-04-03T07:12:37;0.90;;;0.55;;
77423;SDS011;66494;47.172;14.678;2023-04-03T07:13:38;1.70;;;0.93;;
77423;SDS011;66494;47.172;14.678;2023-04-03T07:14:38;2.97;;;0.80;;
77423;SDS011;66494;47.172;14.678;2023-04-03T07:15:39;1.48;;;0.73;;
77423;SDS011;66494;47.172;14.678;2023-04-03T07:16:39;2.03;;;1.38;;
77423;SDS011;66494;47.172;14.678;2023-04-03T07:17:39;2.72;;;0.60;;
77423;SDS011;66494;47.172;14.678;2023-04-03T07:18:40;2.47;;;0.70;;
77423;SDS011;66494;47.172;14.678;2023-04-03T07:19:41;1.55;;;0.60;;
77423;SDS011;66494;47.172;14.678;2023-04-03T07:20:41;2.92;;;0.93;;
77423;SDS011;66494;47.172;14.678;2023-04-03T07:21:41;1.98;;;0.70;;
77423;SDS011;66494;47.172;14.678;2023-04-03T07:22:43;5.40;;;1.08;;
77423;SDS011;66494;47.172;14.678;2023-04-03T07:24:43;3.08;;;0.93;;
77423;SDS011;66494;47.172;14.678;2023-04-03T07:25:44;1.08;;;0.75;;
77423;SDS011;66494;47.172;14.678;2023-04-03T07:26:44;1.58;;;0.70;;
77423;SDS011;66494;47.172;14.678;2023-04-03T07:27:48;2.15;;;1.02;;
77423;SDS011;66494;47.172;14.678;2023-04-03T07:28:49;2.45;;;0.82;;
77423;SDS011;66494;47.172;14.678;2023-04-03T07:29:49;2.30;;;1.23;;
77423;SDS011;66494;47.172;14.678;2023-04-03T07:30:51;2.60;;;1.13;;
77423;SDS011;66494;47.172;14.678;2023-04-03T07:31:51;1.55;;;0.93;;
77423;SDS011;66494;47.172;14.678;2023-04-03T07:32:52;2.85;;;0.73;;
77423;SDS011;66494;47.172;14.678;2023-04-03T07:33:52;4.20;;;0.75;;
77423;SDS011;66494;47.172;14.678;2023-04-03T07:34:53;3.20;;;1.17;;
77423;SDS011;66494;47.172;14.678;2023-04-03T07:35:53;2.30;;;0.65;;
77423;SDS011;66494;47.172;14.678;2023-04-03T07:36:53;3.45;;;0.85;;
77423;SDS011;66494;47.172;14.678;2023-04-03T07:37:53;7.00;;;1.00;;
77423;SDS011;66494;47.172;14.678;2023-04-03T07:38:54;2.00;;;0.90;;
77423;SDS011;66494;47.172;14.678;2023-04-03T07:39:54;1.45;;;0.65;;
77423;SDS011;66494;47.172;14.678;2023-04-03T07:40:55;0.73;;;0.52;;
77423;SDS011;66494;47.172;14.678;2023-04-03T07:41:55;1.05;;;0.70;;
77423;SDS011;66494;47.172;14.678;2023-04-03T07:42:56;0.90;;;0.52;;
77423;SDS011;66494;47.172;14.678;2023-04-03T07:43:56;0.88;;;0.45;;
77423;SDS011;66494;47.172;14.678;2023-04-03T07:44:57;1.65;;;0.70;;
77423;SDS011;66494;47.172;14.678;2023-04-03T07:45:57;3.88;;;1.40;;
77423;SDS011;66494;47.172;14.678;2023-04-03T07:46:58;5.18;;;1.17;;
77423;SDS011;66494;47.172;14.678;2023-04-03T07:47:59;5.43;;;1.50;;
77423;SDS011;66494;47.172;14.678;2023-04-03T07:49:00;2.20;;;1.05;;
77423;SDS011;66494;47.172;14.678;2023-04-03T07:50:00;2.42;;;0.65;;
77423;SDS011;66494;47.172;14.678;2023-04-03T07:51:01;2.75;;;0.52;;
77423;SDS011;66494;47.172;14.678;2023-04-03T07:52:01;2.83;;;0.82;;
77423;SDS011;66494;47.172;14.678;2023-04-03T07:53:03;1.85;;;1.05;;